Meteorología y climatología de Navarra
Datos de la estación - Meteo Navarra

Estación de Sartaguda GN

Altitud 310 m.


Datos desde el 12/09/2019 hasta el 13/09/2019 en horario solar
Los datos son PROVISIONALES

Anterior Página 1 de 1 Siguiente Descargar: Formato para Excel 2000 o superior   Formato csv   Formato para OpenOffice Calc
Fecha Temperatura Humedad relativa Radiación global Insolación Precipitación Vel. viento 10 m Vel. viento 10 m Dir. viento 10 m
ºC % W/m² s l/m² m/s km/h º
12/09/2019 0:00 14.7 72 0.0 0 0.0 2.3 8.3 320
12/09/2019 0:10 14.5 73 0.0 0 0.0 2.1 7.5 321
12/09/2019 0:20 14.3 74 0.0 0 0.0 2.1 7.7 318
12/09/2019 0:30 14.1 75 0.0 0 0.0 2.1 7.5 304
12/09/2019 0:40 14.0 76 0.0 0 0.0 2.3 8.1 315
12/09/2019 0:50 13.9 76 0.0 0 0.0 2.0 7.3 318
12/09/2019 1:00 13.8 76 0.0 0 0.0 1.5 5.3 315
12/09/2019 1:10 13.9 76 0.0 0 0.0 1.9 6.7 310
12/09/2019 1:20 14.0 75 0.0 0 0.0 2.0 7.2 326
12/09/2019 1:30 13.9 76 0.0 0 0.0 1.9 6.8 343
12/09/2019 1:40 13.8 77 0.0 0 0.0 2.4 8.8 353
12/09/2019 1:50 13.4 79 0.0 0 0.0 2.6 9.5 359
12/09/2019 2:00 13.1 81 0.0 0 0.0 2.7 9.8 356
12/09/2019 2:10 13.0 81 0.0 0 0.0 1.8 6.4 360
12/09/2019 2:20 12.9 82 0.0 0 0.0 2.4 8.5 14
12/09/2019 2:30 12.9 82 0.0 0 0.0 2.3 8.4 357
12/09/2019 2:40 12.7 83 0.0 0 0.0 2.6 9.2 350
12/09/2019 2:50 12.7 83 0.0 0 0.0 1.8 6.5 350
12/09/2019 3:00 12.8 82 0.0 0 0.0 1.9 6.9 342
12/09/2019 3:10 12.9 82 0.0 0 0.0 1.3 4.8 349
12/09/2019 3:20 12.9 82 0.0 0 0.0 1.8 6.5 4
12/09/2019 3:30 12.7 83 0.0 0 0.0 2.5 9.0 8
12/09/2019 3:40 12.6 84 0.0 0 0.0 2.8 10.2 2
12/09/2019 3:50 12.5 84 0.0 0 0.0 1.9 6.7 348
12/09/2019 4:00 12.4 85 0.0 0 0.0 2.2 7.7 348
12/09/2019 4:10 12.5 84 0.0 0 0.0 3.2 11.4 354
12/09/2019 4:20 12.8 81 0.0 0 0.0 3.4 12.3 341
12/09/2019 4:30 13.0 80 0.0 0 0.0 3.0 10.8 335
12/09/2019 4:40 13.0 81 0.0 0 0.0 3.3 11.7 345
12/09/2019 4:50 12.7 83 0.0 0 0.0 3.5 12.4 343
12/09/2019 5:00 12.5 84 0.0 0 0.0 4.1 14.7 352
12/09/2019 5:10 12.5 85 0.0 0 0.0 3.5 12.6 351
12/09/2019 5:20 12.3 85 0.0 0 0.0 3.0 10.8 353
12/09/2019 5:30 12.2 85 0.0 0 0.0 3.5 12.7 350
12/09/2019 5:40 12.2 85 0.0 0 0.0 3.9 14.1 331
12/09/2019 5:50 12.4 84 0.0 0 0.0 2.9 10.6 336
12/09/2019 6:00 12.1 86 14.6 0 0.0 2.2 7.8 341
12/09/2019 6:10 12.2 85 34.4 438 0.0 2.4 8.6 337
12/09/2019 6:20 12.3 85 55.3 600 0.0 2.2 8.0 341
12/09/2019 6:30 12.5 84 79.8 600 0.0 2.4 8.7 351
12/09/2019 6:40 12.9 83 106.6 600 0.0 2.2 7.8 347
12/09/2019 6:50 13.2 81 135.9 600 0.0 2.6 9.5 344
12/09/2019 7:00 13.8 79 167.1 600 0.0 2.9 10.6 348
12/09/2019 7:10 14.1 78 198.2 600 0.0 3.2 11.4 355
12/09/2019 7:20 14.5 77 228.6 600 0.0 2.9 10.5 354
12/09/2019 7:30 14.9 75 258.8 600 0.0 2.2 8.0 347
12/09/2019 7:40 15.5 74 290.0 600 0.0 1.9 6.8 335
12/09/2019 7:50 15.9 72 322.1 600 0.0 2.8 10.0 324
12/09/2019 8:00 16.2 71 354.6 600 0.0 2.9 10.5 313
12/09/2019 8:10 16.7 69 385.5 600 0.0 2.5 9.0 306
12/09/2019 8:20 17.3 66 416.2 600 0.0 2.8 10.2 304
12/09/2019 8:30 17.6 65 447.1 600 0.0 3.4 12.3 313
12/09/2019 8:40 18.0 62 476.0 600 0.0 3.1 11.3 313
12/09/2019 8:50 18.6 60 504.7 600 0.0 2.7 9.7 295
12/09/2019 9:00 19.0 58 529.9 600 0.0 2.9 10.3 295
12/09/2019 9:10 19.4 56 557.2 600 0.0 2.3 8.4 297
12/09/2019 9:20 19.8 54 582.4 600 0.0 2.5 8.8 305
12/09/2019 9:30 20.1 51 607.8 600 0.0 2.6 9.3 319
12/09/2019 9:40 20.3 51 630.9 600 0.0 2.5 9.1 314
12/09/2019 9:50 20.6 51 652.5 600 0.0 2.4 8.8 321
12/09/2019 10:00 21.0 50 674.3 600 0.0 2.6 9.5 330
12/09/2019 10:10 21.3 50 693.6 600 0.0 3.0 10.9 352
12/09/2019 10:20 21.6 49 712.9 600 0.0 3.2 11.4 358
12/09/2019 10:30 21.9 48 729.5 600 0.0 2.5 8.9 0
12/09/2019 10:40 22.2 48 745.8 600 0.0 2.6 9.4 6
12/09/2019 10:50 22.5 46 759.9 600 0.0 2.0 7.1 1
12/09/2019 11:00 22.8 45 773.1 600 0.0 2.1 7.7 16
12/09/2019 11:10 23.2 44 786.1 600 0.0 2.1 7.4 355
12/09/2019 11:20 23.5 43 795.7 600 0.0 2.7 9.7 2
12/09/2019 11:30 23.7 43 805.0 600 0.0 2.1 7.5 333
12/09/2019 11:40 24.0 42 811.0 600 0.0 2.3 8.2 354
12/09/2019 11:50 24.3 41 811.0 600 0.0 1.8 6.5 23
12/09/2019 12:00 24.4 40 810.0 600 0.0 1.8 6.3 342
12/09/2019 12:10 24.8 39 815.0 600 0.0 1.3 4.7 31
12/09/2019 12:20 25.8 37 815.0 600 0.0 1.0 3.4 89
12/09/2019 12:30 25.9 37 815.0 600 0.0 1.3 4.7 346
12/09/2019 12:40 26.5 36 808.0 600 0.0 0.7 2.6 333
12/09/2019 12:50 26.6 36 806.0 600 0.0 1.2 4.2 306
12/09/2019 13:00 27.0 36 799.3 600 0.0 1.1 3.9 272
12/09/2019 13:10 27.5 35 789.8 600 0.0 1.3 4.6 304
12/09/2019 13:20 27.6 34 776.4 600 0.0 0.5 1.9 112
12/09/2019 13:30 28.4 33 764.4 600 0.0 0.7 2.6 132
12/09/2019 13:40 28.4 32 753.6 600 0.0 1.2 4.3 35
12/09/2019 13:50 28.3 32 738.4 600 0.0 1.4 5.0 149
12/09/2019 14:00 28.5 32 721.2 600 0.0 1.1 4.1 144
12/09/2019 14:10 28.6 31 700.9 600 0.0 1.4 5.1 102
12/09/2019 14:20 28.6 31 684.1 600 0.0 2.2 7.9 135
12/09/2019 14:30 28.6 31 657.7 600 0.0 0.9 3.4 161
12/09/2019 14:40 29.1 31 636.8 600 0.0 1.6 5.7 120
12/09/2019 14:50 29.0 31 613.1 600 0.0 1.2 4.3 114
12/09/2019 15:00 28.9 31 586.1 600 0.0 1.5 5.3 77
12/09/2019 15:10 29.0 30 560.1 600 0.0 1.3 4.5 148
12/09/2019 15:20 28.9 31 535.2 600 0.0 1.4 5.0 143
12/09/2019 15:30 28.8 31 508.0 600 0.0 1.7 6.2 165
12/09/2019 15:40 28.8 30 477.2 600 0.0 1.2 4.5 235
12/09/2019 15:50 29.2 30 444.9 600 0.0 1.1 4.0 56
12/09/2019 16:00 29.4 30 413.1 600 0.0 0.8 2.8 46
12/09/2019 16:10 29.7 29 381.7 600 0.0 0.4 1.3 63
12/09/2019 16:20 29.5 29 350.2 600 0.0 0.4 1.4 133
12/09/2019 16:30 29.6 30 318.6 600 0.0 0.3 1.0 46
12/09/2019 16:40 30.5 30 287.4 600 0.0 0.8 2.8 272
12/09/2019 16:50 30.3 28 254.8 600 0.0 0.5 1.8 248
12/09/2019 17:00 30.3 27 221.5 600 0.0 0.8 2.7 276
12/09/2019 17:10 30.2 28 188.8 600 0.0 0.2 0.7 356
12/09/2019 17:20 30.3 29 155.1 600 0.0 0.1 0.4 60
12/09/2019 17:30 29.9 30 124.3 600 0.0 0.2 0.6 14
12/09/2019 17:40 29.4 34 97.3 600 0.0 0.4 1.5 292
12/09/2019 17:50 28.8 38 70.5 600 0.0 0.3 1.2 271
12/09/2019 18:00 28.2 35 47.5 600 0.0 0.5 1.7 318
12/09/2019 18:10 26.7 40 27.5 218 0.0 0.3 1.1 233
12/09/2019 18:20 25.5 45 6.0 0 0.0 3.0 10.6 49
12/09/2019 18:30 25.1 45 0.0 0 0.0 4.2 15.1 44
12/09/2019 18:40 24.6 47 0.0 0 0.0 3.5 12.6 52
12/09/2019 18:50 24.1 49 0.0 0 0.0 3.5 12.6 49
12/09/2019 19:00 23.6 50 0.0 0 0.0 3.6 12.9 48
12/09/2019 19:10 23.2 52 0.0 0 0.0 3.6 12.8 47
12/09/2019 19:20 23.0 53 0.0 0 0.0 3.1 11.2 39
12/09/2019 19:30 22.7 53 0.0 0 0.0 2.0 7.1 39
12/09/2019 19:40 22.3 54 0.0 0 0.0 1.2 4.4 265
12/09/2019 19:50 22.2 55 0.0 0 0.0 1.4 4.9 307
12/09/2019 20:00 22.2 55 0.0 0 0.0 1.5 5.3 323
12/09/2019 20:10 21.9 56 0.0 0 0.0 1.3 4.6 193
12/09/2019 20:20 21.9 56 0.0 0 0.0 1.4 4.9 241
12/09/2019 20:30 21.6 57 0.0 0 0.0 0.9 3.4 277
12/09/2019 20:40 21.3 58 0.0 0 0.0 0.8 3.0 321
12/09/2019 20:50 20.9 59 0.0 0 0.0 0.3 1.1 279
12/09/2019 21:00 20.1 63 0.0 0 0.0 0.2 0.9 224
12/09/2019 21:10 19.8 64 0.0 0 0.0 0.4 1.4 249
12/09/2019 21:20 19.4 66 0.0 0 0.0 1.6 5.9 295
12/09/2019 21:30 19.3 65 0.0 0 0.0 1.3 4.6 313
12/09/2019 21:40 19.3 64 0.0 0 0.0 0.9 3.2 354
12/09/2019 21:50 19.1 66 0.0 0 0.0 0.7 2.5 267
12/09/2019 22:00 18.8 67 0.0 0 0.0 0.5 1.7 247
12/09/2019 22:10 18.3 69 0.0 0 0.0 0.8 2.9 268
12/09/2019 22:20 18.0 68 0.0 0 0.0 0.8 2.8 272
12/09/2019 22:30 17.8 69 0.0 0 0.0 0.8 3.0 318
12/09/2019 22:40 17.1 73 0.0 0 0.0 0.7 2.5 319
12/09/2019 22:50 16.6 74 0.0 0 0.0 0.8 2.8 270
12/09/2019 23:00 16.7 74 0.0 0 0.0 1.2 4.2 277
12/09/2019 23:10 16.1 76 0.0 0 0.0 0.6 2.1 241
12/09/2019 23:20 16.1 75 0.0 0 0.0 0.6 2.1 328
12/09/2019 23:30 15.8 78 0.0 0 0.0 0.5 1.7 245
12/09/2019 23:40 15.5 78 0.0 0 0.0 1.0 3.4 304
12/09/2019 23:50 16.2 75 0.0 0 0.0 1.3 4.5 292
Anterior Página 1 de 1 Siguiente

NOTA: Tipo de datos según el color:
   - Valores diarios o 10 minutos correctos
   - Valores diarios calculados a partir de un número de datos 10 minutos menor que 144 y mayor que 120, o de un número de datos semihorarios menor que 48 y mayor que 40 (caso de las estaciones de Riegos de Navarra y del MARM)
   - Valores diez minutos estimados


Contacto        Enlaces        Aviso legal